createdAt,value
2019-02-27T00:01:17.055Z,22.95
2019-02-27T00:02:22.685Z,21.50
2019-02-27T00:03:28.879Z,22.58
2019-02-27T00:04:34.828Z,22.80
2019-02-27T00:05:38.871Z,25.48
2019-02-27T00:06:41.738Z,27.98
2019-02-27T00:07:45.586Z,23.27
2019-02-27T00:08:49.232Z,27.13
2019-02-27T00:09:52.890Z,21.00
2019-02-27T00:10:56.520Z,24.57
2019-02-27T00:12:00.131Z,25.52
2019-02-27T00:13:03.731Z,26.70
2019-02-27T00:14:07.328Z,21.17
2019-02-27T00:15:11.027Z,22.37
2019-02-27T00:16:14.621Z,21.17
2019-02-27T00:17:18.841Z,20.85
2019-02-27T00:18:23.968Z,19.82
2019-02-27T00:19:30.957Z,18.95
2019-02-27T00:20:36.676Z,18.42
2019-02-27T00:21:38.215Z,20.72
2019-02-27T00:22:41.798Z,21.05
2019-02-27T00:23:45.397Z,24.85
2019-02-27T00:24:49.075Z,25.37
2019-02-27T00:25:52.702Z,19.40
2019-02-27T00:26:56.361Z,19.15
2019-02-27T00:27:59.973Z,20.37
2019-02-27T00:29:03.764Z,17.85
2019-02-27T00:30:10.211Z,20.25
2019-02-27T00:31:13.870Z,25.25
2019-02-27T00:32:18.666Z,19.73
2019-02-27T00:33:24.906Z,18.07
2019-02-27T00:34:28.069Z,19.30
2019-02-27T00:35:31.680Z,17.65
2019-02-27T00:36:35.266Z,21.12
2019-02-27T00:37:38.860Z,18.70
2019-02-27T00:38:42.493Z,27.13
2019-02-27T00:39:46.090Z,17.37
2019-02-27T00:40:49.703Z,22.35
2019-02-27T00:41:53.307Z,17.52
2019-02-27T00:42:56.903Z,23.65
2019-02-27T00:44:01.358Z,18.73
2019-02-27T00:45:08.339Z,18.15
2019-02-27T00:46:13.383Z,21.12
2019-02-27T00:47:20.140Z,20.57
2019-02-27T00:48:25.953Z,16.75
2019-02-27T00:49:29.824Z,20.72
2019-02-27T00:50:33.051Z,16.15
2019-02-27T00:51:36.710Z,21.30
2019-02-27T00:52:40.296Z,22.67
2019-02-27T00:53:43.891Z,20.62
2019-02-27T00:54:47.491Z,25.52
2019-02-27T00:55:51.085Z,22.82
2019-02-27T00:56:54.788Z,23.25
2019-02-27T00:57:58.400Z,21.75
2019-02-27T00:59:01.986Z,20.95
2019-02-27T01:00:14.787Z,24.00
2019-02-27T01:01:18.377Z,21.70
2019-02-27T01:02:21.977Z,21.50
2019-02-27T01:03:26.249Z,22.17
2019-02-27T01:04:30.389Z,26.75
2019-02-27T01:05:33.977Z,25.20
2019-02-27T01:06:37.555Z,19.90
2019-02-27T01:07:41.237Z,21.27
2019-02-27T01:08:44.904Z,20.90
2019-02-27T01:09:48.841Z,25.05
2019-02-27T01:10:52.443Z,24.87
2019-02-27T01:11:56.048Z,21.48
2019-02-27T01:12:59.712Z,23.30
2019-02-27T01:14:04.152Z,19.95
2019-02-27T01:15:12.654Z,22.65
2019-02-27T01:16:17.254Z,20.85
2019-02-27T01:17:23.891Z,28.25
2019-02-27T01:18:30.418Z,22.40
2019-02-27T01:19:32.204Z,25.68
2019-02-27T01:20:35.879Z,18.60
2019-02-27T01:21:39.462Z,22.40
2019-02-27T01:22:43.171Z,22.52
2019-02-27T01:23:46.756Z,20.15
2019-02-27T01:24:50.691Z,20.10
2019-02-27T01:25:56.923Z,22.70
2019-02-27T01:27:04.294Z,23.92
2019-02-27T01:28:04.872Z,18.85
2019-02-27T01:29:08.471Z,25.12
2019-02-27T01:30:16.487Z,23.87
2019-02-27T01:31:21.968Z,21.50
2019-02-27T01:32:25.320Z,20.30
2019-02-27T01:33:28.901Z,22.67
2019-02-27T01:34:32.631Z,21.50
2019-02-27T01:35:36.367Z,20.70
2019-02-27T01:36:39.967Z,20.37
2019-02-27T01:37:43.577Z,21.60
2019-02-27T01:38:47.182Z,22.15
2019-02-27T01:39:50.770Z,20.23
2019-02-27T01:40:54.407Z,21.42
2019-02-27T01:41:58.579Z,20.90
2019-02-27T01:43:05.547Z,21.07
2019-02-27T01:44:07.434Z,19.75
2019-02-27T01:45:15.487Z,22.75
2019-02-27T01:46:20.720Z,23.42
2019-02-27T01:47:24.343Z,25.57
2019-02-27T01:48:27.951Z,20.77
2019-02-27T01:49:31.562Z,19.85
2019-02-27T01:50:36.842Z,22.40
2019-02-27T01:51:40.443Z,19.15
2019-02-27T01:52:44.023Z,20.20
2019-02-27T01:53:47.611Z,18.55
2019-02-27T01:54:51.226Z,19.37
2019-02-27T01:55:56.367Z,19.45
2019-02-27T01:57:02.769Z,19.65
2019-02-27T01:58:09.146Z,17.87
2019-02-27T01:59:10.727Z,18.85
2019-02-27T02:00:15.023Z,20.70
2019-02-27T02:01:18.658Z,24.37
2019-02-27T02:02:22.262Z,22.87
2019-02-27T02:03:25.867Z,23.02
2019-02-27T02:04:29.489Z,22.90
2019-02-27T02:05:33.265Z,25.25
2019-02-27T02:06:36.892Z,20.35
2019-02-27T02:07:40.853Z,26.80
2019-02-27T02:08:48.049Z,23.75
2019-02-27T02:09:52.072Z,32.75
2019-02-27T02:10:58.948Z,21.37
2019-02-27T02:12:08.640Z,23.80
2019-02-27T02:13:15.858Z,21.73
2019-02-27T02:14:25.166Z,20.85
2019-02-27T02:15:40.570Z,20.37
2019-02-27T02:16:53.003Z,24.25
2019-02-27T02:18:33.062Z,24.80
2019-02-27T02:19:45.566Z,23.55
2019-02-27T02:21:06.626Z,25.27
2019-02-27T02:22:19.084Z,23.60
2019-02-27T02:23:31.606Z,24.00
2019-02-27T02:24:43.826Z,23.38
2019-02-27T02:25:53.421Z,23.90
2019-02-27T02:27:14.400Z,23.50
2019-02-27T02:28:23.882Z,25.43
2019-02-27T02:29:47.126Z,21.50
2019-02-27T02:31:11.435Z,23.20
2019-02-27T02:32:20.937Z,25.45
2019-02-27T02:33:39.151Z,23.05
2019-02-27T02:34:57.797Z,19.95
2019-02-27T02:36:04.468Z,19.50
2019-02-27T02:37:38.469Z,24.85
2019-02-27T02:38:57.142Z,22.40
2019-02-27T02:40:23.209Z,26.95
2019-02-27T02:41:54.052Z,24.25
2019-02-27T02:43:27.997Z,20.20
2019-02-27T02:45:07.804Z,22.52
2019-02-27T02:46:32.324Z,19.52
2019-02-27T02:47:44.120Z,19.15
2019-02-27T02:48:53.366Z,20.97
2019-02-27T02:50:17.737Z,23.77
2019-02-27T02:51:57.987Z,18.75
2019-02-27T02:53:10.402Z,19.80
2019-02-27T02:54:37.560Z,22.65
2019-02-27T02:55:55.028Z,20.45
2019-02-27T02:57:36.274Z,22.65
2019-02-27T02:59:16.354Z,21.97
2019-02-27T03:00:39.223Z,26.45
2019-02-27T03:01:49.165Z,21.45
2019-02-27T03:03:02.545Z,22.05
2019-02-27T03:04:17.988Z,21.70
2019-02-27T03:05:30.567Z,23.07
2019-02-27T03:06:39.785Z,21.60
2019-02-27T03:07:58.219Z,20.05
2019-02-27T03:09:20.101Z,22.52
2019-02-27T03:10:42.578Z,19.73
2019-02-27T03:12:06.313Z,32.17
2019-02-27T03:13:29.856Z,29.82
2019-02-27T03:14:36.544Z,22.73
2019-02-27T03:16:04.614Z,21.55
2019-02-27T03:17:18.050Z,22.50
2019-02-27T03:18:45.528Z,19.80
2019-02-27T03:20:17.876Z,21.33
2019-02-27T03:21:34.642Z,26.80
2019-02-27T03:22:56.223Z,24.57
2019-02-27T03:24:18.043Z,20.72
2019-02-27T03:25:42.766Z,21.95
2019-02-27T03:26:53.013Z,20.40
2019-02-27T03:28:12.103Z,21.23
2019-02-27T03:29:37.962Z,18.10
2019-02-27T03:31:18.377Z,21.02
2019-02-27T03:32:28.403Z,25.20
2019-02-27T03:33:52.956Z,26.93
2019-02-27T03:35:17.515Z,26.48
2019-02-27T03:36:26.779Z,19.80
2019-02-27T03:37:49.349Z,20.02
2019-02-27T03:39:08.127Z,18.07
2019-02-27T03:40:29.406Z,22.45
2019-02-27T03:41:58.490Z,21.60
2019-02-27T03:43:11.506Z,21.62
2019-02-27T03:44:48.769Z,20.90
2019-02-27T03:46:03.016Z,20.60
2019-02-27T03:47:20.878Z,21.12
2019-02-27T03:48:42.501Z,18.92
2019-02-27T03:49:51.626Z,19.00
2019-02-27T03:51:07.410Z,16.77
2019-02-27T03:52:22.496Z,16.67
2019-02-27T03:53:38.139Z,19.40
2019-02-27T03:55:07.220Z,19.32
2019-02-27T03:56:19.640Z,21.23
2019-02-27T03:57:32.430Z,21.23
2019-02-27T03:59:05.536Z,19.77
2019-02-27T04:00:22.007Z,22.00
2019-02-27T04:01:34.714Z,19.70
2019-02-27T04:02:47.469Z,19.73
2019-02-27T04:04:30.590Z,19.85
2019-02-27T04:05:50.958Z,22.27
2019-02-27T04:07:23.331Z,19.37
2019-02-27T04:08:44.882Z,18.45
2019-02-27T04:09:47.028Z,23.52
2019-02-27T04:10:50.659Z,20.35
2019-02-27T04:11:54.253Z,18.65
2019-02-27T04:12:57.841Z,26.68
2019-02-27T04:14:04.743Z,20.25
2019-02-27T04:15:08.885Z,19.62
2019-02-27T04:16:12.465Z,22.30
2019-02-27T04:17:16.135Z,21.15
2019-02-27T04:18:18.644Z,19.95
2019-02-27T04:19:22.415Z,20.17
2019-02-27T04:20:26.040Z,20.45
2019-02-27T04:21:29.801Z,21.73
2019-02-27T04:22:36.619Z,25.23
2019-02-27T04:23:38.694Z,23.42
2019-02-27T04:24:42.347Z,20.70
2019-02-27T04:25:45.934Z,17.48
2019-02-27T04:26:49.551Z,21.02
2019-02-27T04:27:55.671Z,31.02
2019-02-27T04:29:04.013Z,21.60
2019-02-27T04:30:05.168Z,19.55
2019-02-27T04:31:08.750Z,21.15
2019-02-27T04:32:13.219Z,21.50
2019-02-27T04:33:22.957Z,16.77
2019-02-27T04:34:22.132Z,23.65
2019-02-27T04:35:25.749Z,19.05
2019-02-27T04:36:29.444Z,22.17
2019-02-27T04:37:33.101Z,23.38
2019-02-27T04:38:36.683Z,23.30
2019-02-27T04:39:40.280Z,21.77
2019-02-27T04:40:44.127Z,23.90
2019-02-27T04:41:49.566Z,20.35
2019-02-27T04:42:53.683Z,17.48
2019-02-27T04:43:57.302Z,21.25
2019-02-27T04:45:00.894Z,20.08
2019-02-27T04:46:04.557Z,21.00
2019-02-27T04:47:08.182Z,19.52
2019-02-27T04:48:11.802Z,21.62
2019-02-27T04:49:15.440Z,24.40
2019-02-27T04:50:19.031Z,23.57
2019-02-27T04:51:22.654Z,27.60
2019-02-27T04:52:26.307Z,20.30
2019-02-27T04:53:31.919Z,22.77
2019-02-27T04:54:35.183Z,24.00
2019-02-27T04:55:38.762Z,20.23
2019-02-27T04:56:42.422Z,19.12
2019-02-27T04:57:46.043Z,20.88
2019-02-27T04:58:49.628Z,20.77
2019-02-27T04:59:53.253Z,22.55
2019-02-27T05:00:58.935Z,35.85
2019-02-27T05:02:02.068Z,22.82
2019-02-27T05:03:05.709Z,27.37
2019-02-27T05:04:09.356Z,27.20
2019-02-27T05:05:13.012Z,17.23
2019-02-27T05:06:16.592Z,19.85
2019-02-27T05:07:20.845Z,21.57
2019-02-27T05:08:26.937Z,21.33
2019-02-27T05:09:31.355Z,19.95
2019-02-27T05:10:35.069Z,16.12
2019-02-27T05:11:38.727Z,24.37
2019-02-27T05:12:42.336Z,20.90
2019-02-27T05:13:45.927Z,17.95
2019-02-27T05:14:49.522Z,25.65
2019-02-27T05:15:53.182Z,20.23
2019-02-27T05:16:56.758Z,19.57
2019-02-27T05:18:00.512Z,24.35
2019-02-27T05:19:04.741Z,23.05
2019-02-27T05:20:11.579Z,19.30
2019-02-27T05:21:18.894Z,18.55
2019-02-27T05:22:19.662Z,21.07
2019-02-27T05:23:23.311Z,20.68
2019-02-27T05:24:26.916Z,21.25
2019-02-27T05:25:30.520Z,22.00
2019-02-27T05:26:34.117Z,23.62
2019-02-27T05:27:37.721Z,25.08
2019-02-27T05:28:41.379Z,22.17
2019-02-27T05:29:44.975Z,25.40
2019-02-27T05:30:48.661Z,22.20
2019-02-27T05:31:53.245Z,20.12
2019-02-27T05:33:01.642Z,23.50
2019-02-27T05:34:02.996Z,16.97
2019-02-27T05:35:06.679Z,20.43
2019-02-27T05:36:10.284Z,28.67
2019-02-27T05:37:14.007Z,18.40
2019-02-27T05:38:17.635Z,24.30
2019-02-27T05:39:21.239Z,21.50
2019-02-27T05:40:26.009Z,24.67
2019-02-27T05:41:32.936Z,30.37
2019-02-27T05:42:38.803Z,23.83
2019-02-27T05:43:40.671Z,25.32
2019-02-27T05:44:44.258Z,24.82
2019-02-27T05:45:47.846Z,21.15
2019-02-27T05:46:51.505Z,20.00
2019-02-27T05:47:55.148Z,20.95
2019-02-27T05:48:58.746Z,19.65
2019-02-27T05:50:02.343Z,21.23
2019-02-27T05:51:07.545Z,20.97
2019-02-27T05:52:11.815Z,20.02
2019-02-27T05:53:16.622Z,19.57
2019-02-27T05:54:20.214Z,23.80
2019-02-27T05:55:23.801Z,27.77
2019-02-27T05:56:27.464Z,36.17
2019-02-27T05:57:31.461Z,31.12
2019-02-27T05:58:35.118Z,31.97
2019-02-27T05:59:38.701Z,32.53
2019-02-27T06:00:42.295Z,26.23
2019-02-27T06:01:45.872Z,27.60
2019-02-27T06:02:49.576Z,30.65
2019-02-27T06:03:53.245Z,22.15
2019-02-27T06:04:59.142Z,30.52
2019-02-27T06:06:02.130Z,24.77
2019-02-27T06:07:05.733Z,26.52
2019-02-27T06:08:09.370Z,34.27
2019-02-27T06:09:13.074Z,35.65
2019-02-27T06:10:20.174Z,38.23
2019-02-27T06:11:22.858Z,36.68
2019-02-27T06:12:26.488Z,40.50
2019-02-27T06:13:30.234Z,35.23
2019-02-27T06:14:33.874Z,38.63
2019-02-27T06:15:37.468Z,28.60
2019-02-27T06:16:41.075Z,40.08
2019-02-27T06:17:48.806Z,33.92
2019-02-27T06:18:50.178Z,34.67
2019-02-27T06:19:53.990Z,32.17
2019-02-27T06:20:57.574Z,29.57
2019-02-27T06:22:01.164Z,24.75
2019-02-27T06:23:05.065Z,21.97
2019-02-27T06:24:11.596Z,26.73
2019-02-27T06:25:21.901Z,25.65
2019-02-27T06:26:23.513Z,27.90
2019-02-27T06:27:27.099Z,21.33
2019-02-27T06:28:30.688Z,26.95
2019-02-27T06:29:34.288Z,25.10
2019-02-27T06:30:37.889Z,31.73
2019-02-27T06:31:41.536Z,22.20
2019-02-27T06:32:45.122Z,25.77
2019-02-27T06:33:48.858Z,22.50
2019-02-27T06:34:52.464Z,23.50
2019-02-27T06:35:56.069Z,25.32
2019-02-27T06:36:59.713Z,23.52
2019-02-27T06:38:03.271Z,27.22
2019-02-27T06:39:08.690Z,25.17
2019-02-27T06:40:18.231Z,23.87
2019-02-27T06:41:22.150Z,28.50
2019-02-27T06:42:25.790Z,31.75
2019-02-27T06:43:29.431Z,23.38
2019-02-27T06:44:33.066Z,23.75
2019-02-27T06:45:36.652Z,21.60
2019-02-27T06:46:40.244Z,22.27
2019-02-27T06:47:43.849Z,19.50
2019-02-27T06:48:47.453Z,23.95
2019-02-27T06:49:51.866Z,18.82
2019-02-27T06:50:58.228Z,25.60
2019-02-27T06:52:01.531Z,23.52
2019-02-27T06:53:05.189Z,21.37
2019-02-27T06:54:08.809Z,22.20
2019-02-27T06:55:14.211Z,19.57
2019-02-27T06:56:17.786Z,22.45
2019-02-27T06:57:21.396Z,19.40
2019-02-27T06:58:24.996Z,23.42
2019-02-27T06:59:28.646Z,37.58
2019-02-27T07:00:35.754Z,20.00
2019-02-27T07:01:37.534Z,24.43
2019-02-27T07:02:41.289Z,21.70
2019-02-27T07:03:44.879Z,23.12
2019-02-27T07:04:48.474Z,24.47
2019-02-27T07:05:52.069Z,22.85
2019-02-27T07:06:56.025Z,20.35
2019-02-27T07:08:02.229Z,17.23
2019-02-27T07:09:11.349Z,22.13
2019-02-27T07:10:19.603Z,20.30
2019-02-27T07:11:19.990Z,19.25
2019-02-27T07:12:23.623Z,23.92
2019-02-27T07:13:29.874Z,27.42
2019-02-27T07:14:32.495Z,21.60
2019-02-27T07:15:36.088Z,21.60
2019-02-27T07:16:39.668Z,24.52
2019-02-27T07:17:43.361Z,24.02
2019-02-27T07:18:46.967Z,24.50
2019-02-27T07:19:50.553Z,22.62
2019-02-27T07:20:55.585Z,24.95
2019-02-27T07:21:59.449Z,18.87
2019-02-27T07:23:03.083Z,24.90
2019-02-27T07:24:06.675Z,39.08
2019-02-27T07:25:12.587Z,24.60
2019-02-27T07:26:16.628Z,22.20
2019-02-27T07:27:20.370Z,30.60
2019-02-27T07:28:24.156Z,22.40
2019-02-27T07:29:28.102Z,28.57
2019-02-27T07:30:31.724Z,23.47
2019-02-27T07:31:35.306Z,21.48
2019-02-27T07:32:38.874Z,30.20
2019-02-27T07:33:42.498Z,25.55
2019-02-27T07:34:46.699Z,23.42
2019-02-27T07:35:51.348Z,21.15
2019-02-27T07:36:54.977Z,28.47
2019-02-27T07:37:58.550Z,26.87
2019-02-27T07:39:02.145Z,24.05
2019-02-27T07:40:17.969Z,23.05
2019-02-27T07:41:21.607Z,22.25
2019-02-27T07:42:25.207Z,28.85
2019-02-27T07:43:28.794Z,27.40
2019-02-27T07:44:35.035Z,28.85
2019-02-27T07:45:37.662Z,24.07
2019-02-27T07:46:41.344Z,23.45
2019-02-27T07:47:44.951Z,29.02
2019-02-27T07:48:48.558Z,27.52
2019-02-27T07:49:52.164Z,26.52
2019-02-27T07:50:55.927Z,32.35
2019-02-27T07:51:59.587Z,25.00
2019-02-27T07:53:03.196Z,25.60
2019-02-27T07:54:06.792Z,35.25
2019-02-27T07:55:22.010Z,38.53
2019-02-27T07:56:21.530Z,36.17
2019-02-27T07:57:25.187Z,32.05
2019-02-27T07:58:31.221Z,37.20
2019-02-27T07:59:37.944Z,30.17
2019-02-27T08:00:39.266Z,38.40
2019-02-27T08:01:43.966Z,37.40
2019-02-27T08:02:47.714Z,31.45
2019-02-27T08:03:51.290Z,32.05
2019-02-27T08:04:55.316Z,32.28
2019-02-27T08:05:59.784Z,33.85
2019-02-27T08:07:04.366Z,31.10
2019-02-27T08:08:08.042Z,31.27
2019-02-27T08:09:11.730Z,27.98
2019-02-27T08:10:22.722Z,28.62
2019-02-27T08:11:26.551Z,26.82
2019-02-27T08:12:30.257Z,27.67
2019-02-27T08:13:33.887Z,22.50
2019-02-27T08:14:37.902Z,32.38
2019-02-27T08:15:41.556Z,25.52
2019-02-27T08:16:45.173Z,25.08
2019-02-27T08:17:49.052Z,20.80
2019-02-27T08:18:52.714Z,26.02
2019-02-27T08:19:56.374Z,23.87
2019-02-27T08:21:00.005Z,24.90
2019-02-27T08:22:03.677Z,22.20
2019-02-27T08:23:07.330Z,23.00
2019-02-27T08:24:10.991Z,23.15
2019-02-27T08:25:18.213Z,23.65
2019-02-27T08:26:21.830Z,24.30
2019-02-27T08:27:25.459Z,22.93
2019-02-27T08:28:29.084Z,25.82
2019-02-27T08:29:32.729Z,38.10
2019-02-27T08:30:36.345Z,24.40
2019-02-27T08:31:40.014Z,22.77
2019-02-27T08:32:43.621Z,21.45
2019-02-27T08:33:47.288Z,25.52
2019-02-27T08:34:50.926Z,28.87
2019-02-27T08:35:54.528Z,27.10
2019-02-27T08:36:58.160Z,23.57
2019-02-27T08:38:02.832Z,21.95
2019-02-27T08:39:06.844Z,28.77
2019-02-27T08:40:12.540Z,22.45
2019-02-27T08:41:16.149Z,23.40
2019-02-27T08:42:19.808Z,27.07
2019-02-27T08:43:23.431Z,20.20
2019-02-27T08:44:27.014Z,22.25
2019-02-27T08:45:30.828Z,22.93
2019-02-27T08:46:37.002Z,25.37
2019-02-27T08:47:40.831Z,21.05
2019-02-27T08:48:49.738Z,26.23
2019-02-27T08:49:50.400Z,26.20
2019-02-27T08:50:54.053Z,23.45
2019-02-27T08:51:57.686Z,19.90
2019-02-27T08:53:01.349Z,24.52
2019-02-27T08:54:05.039Z,21.93
2019-02-27T08:55:18.808Z,18.73
2019-02-27T08:56:16.688Z,24.27
2019-02-27T08:57:20.338Z,19.98
2019-02-27T08:58:23.989Z,17.95
2019-02-27T08:59:27.583Z,18.90
2019-02-27T09:00:32.849Z,26.05
2019-02-27T09:01:37.877Z,22.32
2019-02-27T09:02:41.540Z,28.10
2019-02-27T09:03:45.202Z,27.35
2019-02-27T09:04:48.825Z,23.05
2019-02-27T09:05:53.761Z,19.73
2019-02-27T09:07:02.159Z,21.77
2019-02-27T09:08:02.956Z,23.50
2019-02-27T09:09:07.977Z,18.35
2019-02-27T09:10:14.522Z,23.70
2019-02-27T09:11:18.153Z,25.27
2019-02-27T09:12:21.785Z,38.73
2019-02-27T09:13:25.454Z,24.47
2019-02-27T09:14:29.120Z,20.37
2019-02-27T09:15:32.791Z,20.80
2019-02-27T09:16:36.396Z,21.25
2019-02-27T09:17:40.094Z,22.17
2019-02-27T09:18:44.219Z,20.45
2019-02-27T09:19:47.909Z,29.72
2019-02-27T09:20:53.360Z,21.48
2019-02-27T09:21:56.840Z,42.00
2019-02-27T09:23:00.444Z,22.98
2019-02-27T09:24:04.147Z,23.00
2019-02-27T09:25:09.409Z,26.15
2019-02-27T09:26:13.442Z,25.43
2019-02-27T09:27:17.061Z,27.07
2019-02-27T09:28:20.675Z,23.02
2019-02-27T09:29:24.353Z,19.30
2019-02-27T09:30:29.346Z,22.55
2019-02-27T09:31:34.771Z,22.40
2019-02-27T09:32:38.696Z,25.75
2019-02-27T09:33:42.302Z,21.48
2019-02-27T09:34:45.921Z,27.15
2019-02-27T09:35:49.591Z,22.37
2019-02-27T09:36:53.280Z,22.20
2019-02-27T09:37:56.869Z,24.67
2019-02-27T09:39:00.810Z,23.70
2019-02-27T09:40:07.217Z,36.68
2019-02-27T09:41:12.386Z,36.50
2019-02-27T09:42:18.745Z,20.65
2019-02-27T09:43:24.081Z,41.65
2019-02-27T09:44:26.736Z,30.77
2019-02-27T09:45:37.066Z,26.40
2019-02-27T09:46:40.710Z,32.33
2019-02-27T09:47:44.363Z,30.35
2019-02-27T09:48:47.990Z,24.50
2019-02-27T09:49:51.647Z,28.50
2019-02-27T09:50:56.950Z,24.05
2019-02-27T09:52:00.731Z,27.52
2019-02-27T09:53:04.686Z,30.17
2019-02-27T09:54:10.943Z,28.10
2019-02-27T09:55:13.620Z,21.27
2019-02-27T09:56:17.232Z,23.27
2019-02-27T09:57:20.903Z,24.07
2019-02-27T09:58:24.520Z,25.85
2019-02-27T09:59:28.139Z,23.05
2019-02-27T10:00:36.637Z,20.55
2019-02-27T10:01:40.408Z,22.40
2019-02-27T10:02:46.398Z,30.62
2019-02-27T10:03:52.102Z,19.37
2019-02-27T10:04:54.829Z,23.83
2019-02-27T10:05:58.499Z,23.02
2019-02-27T10:07:02.116Z,23.83
2019-02-27T10:08:07.598Z,22.60
2019-02-27T10:09:14.424Z,29.82
2019-02-27T10:10:18.050Z,25.60
2019-02-27T10:11:22.413Z,24.75
2019-02-27T10:12:27.770Z,31.50
2019-02-27T10:13:31.364Z,34.18
2019-02-27T10:14:34.972Z,26.55
2019-02-27T10:15:38.667Z,28.02
2019-02-27T10:16:42.333Z,39.60
2019-02-27T10:17:46.015Z,28.52
2019-02-27T10:18:49.698Z,24.50
2019-02-27T10:19:53.328Z,26.73
2019-02-27T10:20:56.980Z,28.42
2019-02-27T10:22:00.593Z,24.92
2019-02-27T10:23:04.230Z,23.60
2019-02-27T10:24:08.036Z,23.85
2019-02-27T10:25:11.724Z,22.62
2019-02-27T10:26:16.550Z,23.40
2019-02-27T10:27:20.673Z,24.25
2019-02-27T10:28:24.282Z,24.00
2019-02-27T10:29:27.955Z,23.20
2019-02-27T10:30:31.774Z,25.00
2019-02-27T10:31:35.450Z,21.40
2019-02-27T10:32:39.067Z,27.90
2019-02-27T10:33:43.476Z,20.48
2019-02-27T10:34:47.266Z,22.22
2019-02-27T10:35:51.127Z,22.42
2019-02-27T10:36:54.837Z,21.33
2019-02-27T10:37:58.505Z,26.70
2019-02-27T10:39:02.805Z,31.17
2019-02-27T10:40:12.296Z,18.55
2019-02-27T10:41:15.891Z,25.50
2019-02-27T10:42:19.512Z,29.92
2019-02-27T10:43:23.135Z,26.37
2019-02-27T10:44:26.785Z,21.40
2019-02-27T10:45:30.419Z,19.87
2019-02-27T10:46:34.111Z,20.30
2019-02-27T10:47:39.834Z,25.45
2019-02-27T10:48:43.125Z,23.27
2019-02-27T10:49:46.756Z,26.68
2019-02-27T10:50:50.378Z,21.85
2019-02-27T10:51:53.996Z,24.40
2019-02-27T10:52:57.729Z,25.57
2019-02-27T10:54:04.529Z,21.27
2019-02-27T10:55:11.258Z,21.48
2019-02-27T10:56:14.851Z,39.92
2019-02-27T10:57:18.502Z,32.80
2019-02-27T10:58:22.139Z,21.12
2019-02-27T10:59:25.762Z,22.52
2019-02-27T11:00:31.595Z,24.20
2019-02-27T11:01:36.376Z,22.75
2019-02-27T11:02:40.728Z,25.52
2019-02-27T11:03:44.337Z,28.60
2019-02-27T11:04:49.986Z,22.65
2019-02-27T11:05:55.547Z,23.83
2019-02-27T11:06:58.550Z,23.20
2019-02-27T11:08:02.325Z,25.15
2019-02-27T11:09:09.066Z,32.48
2019-02-27T11:10:12.879Z,25.50
2019-02-27T11:11:16.636Z,29.95
2019-02-27T11:12:20.208Z,29.23
2019-02-27T11:13:23.839Z,21.60
2019-02-27T11:14:31.641Z,21.77
2019-02-27T11:15:32.761Z,23.80
2019-02-27T11:16:36.402Z,25.25
2019-02-27T11:17:40.016Z,21.60
2019-02-27T11:18:43.644Z,26.52
2019-02-27T11:19:47.267Z,22.15
2019-02-27T11:20:50.945Z,31.37
2019-02-27T11:21:54.669Z,25.85
2019-02-27T11:22:58.329Z,30.45
2019-02-27T11:24:01.939Z,26.12
2019-02-27T11:25:08.709Z,23.45
2019-02-27T11:26:12.355Z,27.15
2019-02-27T11:27:16.872Z,24.27
2019-02-27T11:28:21.529Z,22.67
2019-02-27T11:29:25.176Z,23.87
2019-02-27T11:30:37.173Z,23.80
2019-02-27T11:31:42.337Z,22.22
2019-02-27T11:32:46.182Z,20.68
2019-02-27T11:33:49.816Z,20.15
2019-02-27T11:34:53.435Z,25.60
2019-02-27T11:35:57.046Z,22.20
2019-02-27T11:37:00.696Z,20.32
2019-02-27T11:38:04.616Z,32.28
2019-02-27T11:39:08.558Z,28.83
2019-02-27T11:40:14.906Z,21.62
2019-02-27T11:41:18.597Z,26.05
2019-02-27T11:42:22.307Z,24.85
2019-02-27T11:43:25.998Z,28.10
2019-02-27T11:44:29.682Z,23.85
2019-02-27T11:45:33.300Z,23.00
2019-02-27T11:46:38.241Z,23.52
2019-02-27T11:47:47.739Z,23.62
2019-02-27T11:48:47.509Z,22.13
2019-02-27T11:49:51.200Z,22.58
2019-02-27T11:50:54.820Z,29.23
2019-02-27T11:51:58.466Z,32.75
2019-02-27T11:53:03.064Z,30.23
2019-02-27T11:54:08.247Z,24.72
2019-02-27T11:55:16.631Z,21.68
2019-02-27T11:56:20.840Z,26.23
2019-02-27T11:57:24.469Z,23.52
2019-02-27T11:58:28.077Z,31.23
2019-02-27T11:59:31.769Z,28.20
2019-02-27T12:00:35.513Z,23.27
2019-02-27T12:01:39.204Z,25.45
2019-02-27T12:02:42.891Z,30.72
2019-02-27T12:03:46.597Z,23.87
2019-02-27T12:04:53.498Z,31.75
2019-02-27T12:05:55.733Z,23.52
2019-02-27T12:06:59.412Z,23.65
2019-02-27T12:08:03.066Z,22.20
2019-02-27T12:09:07.229Z,23.40
2019-02-27T12:10:24.921Z,34.67
2019-02-27T12:11:28.579Z,19.98
2019-02-27T12:12:32.222Z,24.67
2019-02-27T12:13:35.923Z,23.12
2019-02-27T12:14:39.599Z,20.97
2019-02-27T12:15:44.189Z,28.20
2019-02-27T12:16:48.593Z,20.03
2019-02-27T12:17:53.184Z,21.30
2019-02-27T12:18:56.856Z,23.80
2019-02-27T12:20:00.496Z,18.67
2019-02-27T12:21:04.127Z,21.93
2019-02-27T12:22:07.753Z,20.60
2019-02-27T12:23:11.411Z,23.47
2019-02-27T12:24:16.368Z,24.13
2019-02-27T12:25:21.123Z,28.67
2019-02-27T12:26:24.808Z,28.27
2019-02-27T12:27:47.896Z,25.07
2019-02-27T12:28:33.747Z,23.87
2019-02-27T12:29:37.471Z,18.77
2019-02-27T12:30:41.153Z,22.70
2019-02-27T12:31:47.975Z,24.93
2019-02-27T12:32:50.267Z,18.80
2019-02-27T12:33:53.903Z,16.77
2019-02-27T12:34:57.543Z,17.10
2019-02-27T12:36:01.229Z,15.70
2019-02-27T12:37:04.946Z,22.63
2019-02-27T12:38:08.646Z,19.20
2019-02-27T12:39:15.206Z,17.77
2019-02-27T12:40:24.963Z,21.77
2019-02-27T12:41:27.387Z,15.80
2019-02-27T12:42:37.064Z,15.67
2019-02-27T12:43:36.304Z,25.80
2019-02-27T12:44:39.950Z,17.10
2019-02-27T12:45:43.560Z,24.03
2019-02-27T12:46:47.193Z,29.23
2019-02-27T12:47:50.802Z,18.60
2019-02-27T12:48:54.489Z,20.27
2019-02-27T12:49:58.101Z,21.07
2019-02-27T12:51:03.723Z,21.73
2019-02-27T12:52:08.960Z,21.73
2019-02-27T12:53:12.369Z,24.27
2019-02-27T12:54:18.278Z,19.63
2019-02-27T12:55:23.221Z,22.27
2019-02-27T12:56:26.850Z,17.23
2019-02-27T12:57:30.479Z,17.10
2019-02-27T12:58:34.127Z,18.23
2019-02-27T12:59:37.846Z,17.87
2019-02-27T13:00:42.520Z,15.60
2019-02-27T13:01:50.927Z,17.20
2019-02-27T13:02:52.090Z,19.27
2019-02-27T13:03:56.881Z,14.87
2019-02-27T13:05:00.683Z,16.23
2019-02-27T13:06:04.659Z,16.87
2019-02-27T13:07:10.372Z,16.30
2019-02-27T13:08:13.542Z,19.93
2019-02-27T13:09:17.214Z,17.57
2019-02-27T13:10:25.640Z,14.07
2019-02-27T13:11:29.305Z,16.63
2019-02-27T13:12:32.950Z,21.23
2019-02-27T13:13:36.565Z,15.00
2019-02-27T13:14:40.193Z,13.60
2019-02-27T13:15:43.934Z,14.60
2019-02-27T13:16:49.496Z,14.63
2019-02-27T13:17:56.282Z,12.17
2019-02-27T13:18:58.299Z,14.60
2019-02-27T13:20:03.084Z,13.83
2019-02-27T13:21:06.909Z,14.03
2019-02-27T13:22:10.511Z,14.63
2019-02-27T13:23:14.121Z,14.93
2019-02-27T13:24:17.753Z,17.63
2019-02-27T13:25:23.924Z,12.50
2019-02-27T13:26:26.723Z,11.40
2019-02-27T13:27:30.339Z,13.07
2019-02-27T13:28:33.966Z,11.80
2019-02-27T13:29:37.575Z,14.60
2019-02-27T13:30:41.586Z,14.30
2019-02-27T13:31:48.457Z,15.87
2019-02-27T13:32:51.096Z,15.43
2019-02-27T13:33:54.772Z,16.70
2019-02-27T13:34:58.423Z,15.80
2019-02-27T13:36:02.029Z,17.07
2019-02-27T13:37:09.154Z,19.63
2019-02-27T13:38:11.372Z,16.20
2019-02-27T13:39:14.978Z,18.67
2019-02-27T13:40:23.441Z,18.13
2019-02-27T13:41:27.117Z,12.87
2019-02-27T13:42:30.723Z,9.93
2019-02-27T13:43:34.403Z,11.10
2019-02-27T13:44:38.866Z,14.00
2019-02-27T13:45:47.331Z,10.50
2019-02-27T13:46:47.965Z,15.93
2019-02-27T13:47:51.565Z,12.17
2019-02-27T13:48:55.203Z,14.57
2019-02-27T13:49:58.831Z,16.43
2019-02-27T13:51:02.706Z,13.80
2019-02-27T13:52:06.411Z,12.60
2019-02-27T13:53:10.154Z,20.83
2019-02-27T13:54:13.769Z,11.03
2019-02-27T13:55:22.504Z,11.33
2019-02-27T13:56:27.557Z,16.43
2019-02-27T13:57:31.647Z,12.87
2019-02-27T13:58:36.488Z,15.53
2019-02-27T13:59:42.277Z,14.10
2019-02-27T14:00:45.524Z,13.43
2019-02-27T14:01:49.187Z,8.83
2019-02-27T14:02:52.847Z,11.07
2019-02-27T14:03:56.507Z,11.73
2019-02-27T14:05:00.761Z,10.80
2019-02-27T14:06:06.219Z,12.23
2019-02-27T14:07:10.162Z,12.13
2019-02-27T14:08:13.944Z,8.77
2019-02-27T14:09:18.959Z,7.93
2019-02-27T14:10:28.518Z,7.30
2019-02-27T14:11:32.172Z,10.07